sensor_id;sensor_type;location;lat;lon;timestamp;P1;P2;P0
30713;PMS7003;17465;47.934;33.430;2023-02-28T00:00:39;123.80;118.40;105.00
30713;PMS7003;17465;47.934;33.430;2023-02-28T00:03:10;128.20;121.20;107.40
30713;PMS7003;17465;47.934;33.430;2023-02-28T00:05:41;115.50;108.25;98.75
30713;PMS7003;17465;47.934;33.430;2023-02-28T00:08:11;118.80;111.00;92.80
30713;PMS7003;17465;47.934;33.430;2023-02-28T00:10:42;114.75;105.75;94.50
30713;PMS7003;17465;47.934;33.430;2023-02-28T00:13:13;106.00;98.50;82.75
30713;PMS7003;17465;47.934;33.430;2023-02-28T00:15:44;112.40;103.40;89.60
30713;PMS7003;17465;47.934;33.430;2023-02-28T00:18:15;111.50;104.00;92.25
30713;PMS7003;17465;47.934;33.430;2023-02-28T00:20:47;105.60;97.60;85.00
30713;PMS7003;17465;47.934;33.430;2023-02-28T00:23:18;93.75;82.00;84.50
30713;PMS7003;17465;47.934;33.430;2023-02-28T00:25:49;82.00;67.25;54.75
30713;PMS7003;17465;47.934;33.430;2023-02-28T00:28:21;67.00;55.50;39.25
30713;PMS7003;17465;47.934;33.430;2023-02-28T00:30:52;69.00;57.25;40.75
30713;PMS7003;17465;47.934;33.430;2023-02-28T00:33:23;62.00;53.50;37.25
30713;PMS7003;17465;47.934;33.430;2023-02-28T00:36:01;64.50;53.50;38.00
30713;PMS7003;17465;47.934;33.430;2023-02-28T00:38:27;63.25;53.50;40.00
30713;PMS7003;17465;47.934;33.430;2023-02-28T00:40:57;63.50;53.25;39.25
30713;PMS7003;17465;47.934;33.430;2023-02-28T00:43:28;65.00;55.00;40.50
30713;PMS7003;17465;47.934;33.430;2023-02-28T00:45:58;61.50;51.50;37.75
30713;PMS7003;17465;47.934;33.430;2023-02-28T00:48:29;58.75;50.50;36.50
30713;PMS7003;17465;47.934;33.430;2023-02-28T00:51:00;55.25;45.75;32.25
30713;PMS7003;17465;47.934;33.430;2023-02-28T00:53:32;52.75;46.50;32.75
30713;PMS7003;17465;47.934;33.430;2023-02-28T00:56:02;28.75;27.00;14.25
30713;PMS7003;17465;47.934;33.430;2023-02-28T00:58:34;40.75;39.50;28.25
30713;PMS7003;17465;47.934;33.430;2023-02-28T01:01:05;42.75;39.50;27.00
30713;PMS7003;17465;47.934;33.430;2023-02-28T01:03:36;49.00;42.00;28.25
30713;PMS7003;17465;47.934;33.430;2023-02-28T01:06:07;49.50;41.75;25.50
30713;PMS7003;17465;47.934;33.430;2023-02-28T01:08:38;38.50;35.50;23.00
30713;PMS7003;17465;47.934;33.430;2023-02-28T01:11:10;40.50;33.50;21.50
30713;PMS7003;17465;47.934;33.430;2023-02-28T01:13:42;51.00;42.50;25.25
30713;PMS7003;17465;47.934;33.430;2023-02-28T01:16:14;29.25;27.25;12.50
30713;PMS7003;17465;47.934;33.430;2023-02-28T01:18:45;27.50;27.50;14.25
30713;PMS7003;17465;47.934;33.430;2023-02-28T01:21:17;32.50;29.75;16.75
30713;PMS7003;17465;47.934;33.430;2023-02-28T01:23:49;31.00;29.75;19.25
30713;PMS7003;17465;47.934;33.430;2023-02-28T01:26:21;34.75;32.25;19.25
30713;PMS7003;17465;47.934;33.430;2023-02-28T01:28:52;37.75;35.75;20.00
30713;PMS7003;17465;47.934;33.430;2023-02-28T01:31:23;40.00;33.25;17.00
30713;PMS7003;17465;47.934;33.430;2023-02-28T01:33:54;31.75;28.25;16.00
30713;PMS7003;17465;47.934;33.430;2023-02-28T01:36:25;41.25;31.50;19.25
30713;PMS7003;17465;47.934;33.430;2023-02-28T01:38:55;32.75;32.25;16.00
30713;PMS7003;17465;47.934;33.430;2023-02-28T01:41:29;31.75;29.25;13.00
30713;PMS7003;17465;47.934;33.430;2023-02-28T01:46:52;38.00;35.25;20.50
30713;PMS7003;17465;47.934;33.430;2023-02-28T01:49:22;27.25;25.25;11.75
30713;PMS7003;17465;47.934;33.430;2023-02-28T01:51:54;36.50;28.50;11.50
30713;PMS7003;17465;47.934;33.430;2023-02-28T01:54:27;45.50;39.75;22.75
30713;PMS7003;17465;47.934;33.430;2023-02-28T01:57:06;38.75;38.50;21.00
30713;PMS7003;17465;47.934;33.430;2023-02-28T02:02:12;39.75;37.00;20.25
30713;PMS7003;17465;47.934;33.430;2023-02-28T02:04:46;39.25;33.75;18.00
30713;PMS7003;17465;47.934;33.430;2023-02-28T02:07:18;36.00;34.00;18.25
30713;PMS7003;17465;47.934;33.430;2023-02-28T02:09:59;34.75;34.75;22.00
30713;PMS7003;17465;47.934;33.430;2023-02-28T02:12:35;34.00;31.75;17.25
30713;PMS7003;17465;47.934;33.430;2023-02-28T02:15:24;30.50;26.75;10.50
30713;PMS7003;17465;47.934;33.430;2023-02-28T02:18:07;34.50;31.75;22.00
30713;PMS7003;17465;47.934;33.430;2023-02-28T02:20:44;33.00;28.75;17.00
30713;PMS7003;17465;47.934;33.430;2023-02-28T02:31:46;31.00;26.50;14.00
30713;PMS7003;17465;47.934;33.430;2023-02-28T02:37:12;35.50;34.25;18.50
30713;PMS7003;17465;47.934;33.430;2023-02-28T02:39:49;30.50;29.50;16.75
30713;PMS7003;17465;47.934;33.430;2023-02-28T02:43:07;34.75;33.75;16.50
30713;PMS7003;17465;47.934;33.430;2023-02-28T02:45:33;28.50;27.25;16.00
30713;PMS7003;17465;47.934;33.430;2023-02-28T02:48:07;32.00;26.50;14.00
30713;PMS7003;17465;47.934;33.430;2023-02-28T02:50:42;32.50;28.25;16.50
30713;PMS7003;17465;47.934;33.430;2023-02-28T02:53:13;37.00;33.25;19.00
30713;PMS7003;17465;47.934;33.430;2023-02-28T02:55:47;34.75;32.00;15.75
30713;PMS7003;17465;47.934;33.430;2023-02-28T02:58:22;39.00;35.25;19.25
30713;PMS7003;17465;47.934;33.430;2023-02-28T03:00:54;34.00;30.50;14.50
30713;PMS7003;17465;47.934;33.430;2023-02-28T03:03:28;35.00;35.00;18.25
30713;PMS7003;17465;47.934;33.430;2023-02-28T03:06:00;34.50;34.50;18.50
30713;PMS7003;17465;47.934;33.430;2023-02-28T03:08:36;33.75;30.75;18.50
30713;PMS7003;17465;47.934;33.430;2023-02-28T03:11:11;34.50;33.00;18.00
30713;PMS7003;17465;47.934;33.430;2023-02-28T03:13:48;31.00;31.00;17.00
30713;PMS7003;17465;47.934;33.430;2023-02-28T03:19:44;26.75;26.00;12.00
30713;PMS7003;17465;47.934;33.430;2023-02-28T03:31:10;36.50;27.50;16.50
30713;PMS7003;17465;47.934;33.430;2023-02-28T03:34:08;38.25;34.75;20.50
30713;PMS7003;17465;47.934;33.430;2023-02-28T03:36:52;33.50;28.25;16.00
30713;PMS7003;17465;47.934;33.430;2023-02-28T03:39:28;19.50;17.50;12.00
30713;PMS7003;17465;47.934;33.430;2023-02-28T03:42:15;22.50;22.25;10.25
30713;PMS7003;17465;47.934;33.430;2023-02-28T03:47:51;38.00;34.25;15.00
30713;PMS7003;17465;47.934;33.430;2023-02-28T03:50:47;46.50;36.75;21.25
30713;PMS7003;17465;47.934;33.430;2023-02-28T03:53:27;30.75;27.75;17.75
30713;PMS7003;17465;47.934;33.430;2023-02-28T03:55:56;28.00;26.75;12.25
30713;PMS7003;17465;47.934;33.430;2023-02-28T03:58:42;28.25;24.75;14.00
30713;PMS7003;17465;47.934;33.430;2023-02-28T04:04:00;29.33;25.00;15.00
30713;PMS7003;17465;47.934;33.430;2023-02-28T04:06:32;45.75;41.75;23.00
30713;PMS7003;17465;47.934;33.430;2023-02-28T04:09:04;41.75;38.50;20.25
30713;PMS7003;17465;47.934;33.430;2023-02-28T04:11:37;30.25;28.00;14.00
30713;PMS7003;17465;47.934;33.430;2023-02-28T04:14:09;28.25;26.50;15.00
30713;PMS7003;17465;47.934;33.430;2023-02-28T04:16:41;27.50;22.50;14.00
30713;PMS7003;17465;47.934;33.430;2023-02-28T04:19:12;28.00;27.75;15.75
30713;PMS7003;17465;47.934;33.430;2023-02-28T04:21:44;25.25;25.25;14.00
30713;PMS7003;17465;47.934;33.430;2023-02-28T04:24:20;40.50;36.50;22.50
30713;PMS7003;17465;47.934;33.430;2023-02-28T04:27:08;30.25;28.00;13.50
30713;PMS7003;17465;47.934;33.430;2023-02-28T04:29:39;26.50;23.75;13.50
30713;PMS7003;17465;47.934;33.430;2023-02-28T04:32:13;25.25;23.50;15.25
30713;PMS7003;17465;47.934;33.430;2023-02-28T04:34:44;22.75;22.75;14.00
30713;PMS7003;17465;47.934;33.430;2023-02-28T04:37:15;31.50;29.00;17.25
30713;PMS7003;17465;47.934;33.430;2023-02-28T04:39:51;30.50;29.00;16.75
30713;PMS7003;17465;47.934;33.430;2023-02-28T04:42:22;25.00;22.00;11.00
30713;PMS7003;17465;47.934;33.430;2023-02-28T04:44:52;37.00;33.25;17.50
30713;PMS7003;17465;47.934;33.430;2023-02-28T04:47:26;30.25;26.75;15.75
30713;PMS7003;17465;47.934;33.430;2023-02-28T04:49:57;27.25;23.25;14.00
30713;PMS7003;17465;47.934;33.430;2023-02-28T04:52:28;20.75;17.25;5.00
30713;PMS7003;17465;47.934;33.430;2023-02-28T04:54:59;23.50;21.25;13.50
30713;PMS7003;17465;47.934;33.430;2023-02-28T04:57:30;24.50;23.00;13.50
30713;PMS7003;17465;47.934;33.430;2023-02-28T05:00:02;23.75;23.75;12.00
30713;PMS7003;17465;47.934;33.430;2023-02-28T05:02:34;24.25;23.50;11.25
30713;PMS7003;17465;47.934;33.430;2023-02-28T05:05:07;16.75;16.50;9.50
30713;PMS7003;17465;47.934;33.430;2023-02-28T05:07:42;27.25;27.25;16.50
30713;PMS7003;17465;47.934;33.430;2023-02-28T05:10:14;29.50;24.25;13.75
30713;PMS7003;17465;47.934;33.430;2023-02-28T05:12:47;29.25;26.75;14.50
30713;PMS7003;17465;47.934;33.430;2023-02-28T05:15:17;24.75;23.50;12.00
30713;PMS7003;17465;47.934;33.430;2023-02-28T05:17:50;23.50;23.00;15.00
30713;PMS7003;17465;47.934;33.430;2023-02-28T05:20:21;27.75;24.25;15.00
30713;PMS7003;17465;47.934;33.430;2023-02-28T05:22:51;30.00;27.25;12.50
30713;PMS7003;17465;47.934;33.430;2023-02-28T05:25:21;23.75;20.50;12.25
30713;PMS7003;17465;47.934;33.430;2023-02-28T05:27:55;23.25;23.25;11.75
30713;PMS7003;17465;47.934;33.430;2023-02-28T05:30:26;19.50;17.00;7.00
30713;PMS7003;17465;47.934;33.430;2023-02-28T05:32:56;18.00;16.75;10.25
30713;PMS7003;17465;47.934;33.430;2023-02-28T05:35:28;20.00;18.25;11.75
30713;PMS7003;17465;47.934;33.430;2023-02-28T05:37:59;23.50;22.50;13.25
30713;PMS7003;17465;47.934;33.430;2023-02-28T05:40:30;18.50;15.00;3.50
30713;PMS7003;17465;47.934;33.430;2023-02-28T05:43:01;23.75;22.50;12.00
30713;PMS7003;17465;47.934;33.430;2023-02-28T05:45:34;26.50;24.00;11.00
30713;PMS7003;17465;47.934;33.430;2023-02-28T05:48:29;20.75;16.75;11.00
30713;PMS7003;17465;47.934;33.430;2023-02-28T05:51:00;24.75;23.00;12.25
30713;PMS7003;17465;47.934;33.430;2023-02-28T05:53:32;22.25;22.00;13.25
30713;PMS7003;17465;47.934;33.430;2023-02-28T05:56:03;24.50;23.25;13.00
30713;PMS7003;17465;47.934;33.430;2023-02-28T06:01:35;28.25;27.75;14.25
30713;PMS7003;17465;47.934;33.430;2023-02-28T06:04:12;27.25;23.50;14.25
30713;PMS7003;17465;47.934;33.430;2023-02-28T06:06:46;30.50;28.50;17.00
30713;PMS7003;17465;47.934;33.430;2023-02-28T06:09:17;31.00;28.75;13.75
30713;PMS7003;17465;47.934;33.430;2023-02-28T06:11:48;30.00;26.00;16.00
30713;PMS7003;17465;47.934;33.430;2023-02-28T06:14:19;30.75;27.75;16.00
30713;PMS7003;17465;47.934;33.430;2023-02-28T06:16:50;25.50;21.50;11.00
30713;PMS7003;17465;47.934;33.430;2023-02-28T06:19:21;34.25;30.50;13.50
30713;PMS7003;17465;47.934;33.430;2023-02-28T06:21:53;27.25;24.50;14.00
30713;PMS7003;17465;47.934;33.430;2023-02-28T06:24:26;34.67;29.67;16.00
30713;PMS7003;17465;47.934;33.430;2023-02-28T06:26:56;24.50;22.75;15.50
30713;PMS7003;17465;47.934;33.430;2023-02-28T06:29:27;28.25;26.50;15.75
30713;PMS7003;17465;47.934;33.430;2023-02-28T06:31:58;31.00;27.00;13.50
30713;PMS7003;17465;47.934;33.430;2023-02-28T06:34:28;33.50;31.75;17.00
30713;PMS7003;17465;47.934;33.430;2023-02-28T06:36:59;24.25;24.25;16.50
30713;PMS7003;17465;47.934;33.430;2023-02-28T06:39:30;31.50;29.25;18.25
30713;PMS7003;17465;47.934;33.430;2023-02-28T06:42:02;31.50;28.25;16.50
30713;PMS7003;17465;47.934;33.430;2023-02-28T06:44:32;32.00;29.25;15.25
30713;PMS7003;17465;47.934;33.430;2023-02-28T06:47:04;27.00;23.25;12.50
30713;PMS7003;17465;47.934;33.430;2023-02-28T06:49:47;21.00;19.50;9.25
30713;PMS7003;17465;47.934;33.430;2023-02-28T06:52:24;30.00;28.00;16.00
30713;PMS7003;17465;47.934;33.430;2023-02-28T06:54:54;30.25;29.00;16.25
30713;PMS7003;17465;47.934;33.430;2023-02-28T06:57:31;23.75;21.75;13.50
30713;PMS7003;17465;47.934;33.430;2023-02-28T07:00:04;24.50;23.75;12.75
30713;PMS7003;17465;47.934;33.430;2023-02-28T07:02:39;19.75;19.75;12.50
30713;PMS7003;17465;47.934;33.430;2023-02-28T07:05:09;28.25;26.75;15.50
30713;PMS7003;17465;47.934;33.430;2023-02-28T07:07:42;29.75;29.50;17.00
30713;PMS7003;17465;47.934;33.430;2023-02-28T07:10:13;33.75;30.75;19.00
30713;PMS7003;17465;47.934;33.430;2023-02-28T07:12:45;37.75;31.50;21.50
30713;PMS7003;17465;47.934;33.430;2023-02-28T07:15:16;36.00;33.25;23.50
30713;PMS7003;17465;47.934;33.430;2023-02-28T07:17:46;41.00;39.50;28.00
30713;PMS7003;17465;47.934;33.430;2023-02-28T07:20:17;38.50;35.75;26.50
30713;PMS7003;17465;47.934;33.430;2023-02-28T07:22:49;39.00;37.75;26.25
30713;PMS7003;17465;47.934;33.430;2023-02-28T07:25:21;38.00;35.75;26.00
30713;PMS7003;17465;47.934;33.430;2023-02-28T07:28:18;37.25;36.25;24.25
30713;PMS7003;17465;47.934;33.430;2023-02-28T07:30:49;34.00;33.75;24.25
30713;PMS7003;17465;47.934;33.430;2023-02-28T07:33:20;38.50;36.75;23.75
30713;PMS7003;17465;47.934;33.430;2023-02-28T07:35:59;24.00;24.00;18.25
30713;PMS7003;17465;47.934;33.430;2023-02-28T07:38:25;31.75;29.25;19.00
30713;PMS7003;17465;47.934;33.430;2023-02-28T07:40:56;30.75;30.00;20.50
30713;PMS7003;17465;47.934;33.430;2023-02-28T07:43:27;33.25;33.25;24.50
30713;PMS7003;17465;47.934;33.430;2023-02-28T07:46:04;32.25;30.75;18.25
30713;PMS7003;17465;47.934;33.430;2023-02-28T07:48:37;30.75;25.75;15.50
30713;PMS7003;17465;47.934;33.430;2023-02-28T07:51:08;31.25;26.00;15.25
30713;PMS7003;17465;47.934;33.430;2023-02-28T07:53:39;20.75;17.50;6.00
30713;PMS7003;17465;47.934;33.430;2023-02-28T07:56:09;16.50;16.50;9.25
30713;PMS7003;17465;47.934;33.430;2023-02-28T07:58:40;25.00;21.75;10.75
30713;PMS7003;17465;47.934;33.430;2023-02-28T08:01:11;27.25;26.00;14.75
30713;PMS7003;17465;47.934;33.430;2023-02-28T08:03:47;26.25;25.50;17.00
30713;PMS7003;17465;47.934;33.430;2023-02-28T08:06:21;30.25;29.75;14.00
30713;PMS7003;17465;47.934;33.430;2023-02-28T08:08:57;20.75;19.75;10.50
30713;PMS7003;17465;47.934;33.430;2023-02-28T08:11:28;23.25;20.75;12.25
30713;PMS7003;17465;47.934;33.430;2023-02-28T08:14:00;23.50;20.25;9.25
30713;PMS7003;17465;47.934;33.430;2023-02-28T08:16:31;13.75;13.00;7.75
30713;PMS7003;17465;47.934;33.430;2023-02-28T08:19:04;19.75;19.75;9.50
30713;PMS7003;17465;47.934;33.430;2023-02-28T08:21:37;27.00;22.50;10.50
30713;PMS7003;17465;47.934;33.430;2023-02-28T08:24:09;2.25;2.00;0.00
30713;PMS7003;17465;47.934;33.430;2023-02-28T08:26:39;19.50;14.50;5.25
30713;PMS7003;17465;47.934;33.430;2023-02-28T08:29:12;14.75;13.75;6.00
30713;PMS7003;17465;47.934;33.430;2023-02-28T08:31:43;18.75;18.50;9.25
30713;PMS7003;17465;47.934;33.430;2023-02-28T08:34:14;18.75;14.75;8.00
30713;PMS7003;17465;47.934;33.430;2023-02-28T08:36:45;21.50;18.00;9.00
30713;PMS7003;17465;47.934;33.430;2023-02-28T08:39:19;14.75;13.00;6.00
30713;PMS7003;17465;47.934;33.430;2023-02-28T08:41:50;15.00;15.00;9.25
30713;PMS7003;17465;47.934;33.430;2023-02-28T08:44:29;14.50;14.50;8.00
30713;PMS7003;17465;47.934;33.430;2023-02-28T08:47:05;20.00;17.25;7.00
30713;PMS7003;17465;47.934;33.430;2023-02-28T08:49:37;11.00;10.75;7.00
30713;PMS7003;17465;47.934;33.430;2023-02-28T08:52:04;17.50;15.75;9.25
30713;PMS7003;17465;47.934;33.430;2023-02-28T08:54:39;16.00;13.00;6.50
30713;PMS7003;17465;47.934;33.430;2023-02-28T08:57:11;20.00;20.00;10.50
30713;PMS7003;17465;47.934;33.430;2023-02-28T09:00:04;17.50;14.50;7.00
30713;PMS7003;17465;47.934;33.430;2023-02-28T09:02:33;22.75;19.50;10.00
30713;PMS7003;17465;47.934;33.430;2023-02-28T09:05:06;21.50;19.00;12.75
30713;PMS7003;17465;47.934;33.430;2023-02-28T09:07:38;16.50;15.50;9.25
30713;PMS7003;17465;47.934;33.430;2023-02-28T09:10:09;19.00;17.50;10.00
30713;PMS7003;17465;47.934;33.430;2023-02-28T09:12:40;15.00;15.00;9.00
30713;PMS7003;17465;47.934;33.430;2023-02-28T09:15:12;21.25;18.50;11.00
30713;PMS7003;17465;47.934;33.430;2023-02-28T09:18:02;14.50;14.50;8.75
30713;PMS7003;17465;47.934;33.430;2023-02-28T09:20:32;13.25;13.25;6.00
30713;PMS7003;17465;47.934;33.430;2023-02-28T09:23:03;22.50;15.50;8.00
30713;PMS7003;17465;47.934;33.430;2023-02-28T09:25:34;15.00;15.00;6.50
30713;PMS7003;17465;47.934;33.430;2023-02-28T09:28:05;11.25;11.25;6.00
30713;PMS7003;17465;47.934;33.430;2023-02-28T09:30:35;21.00;16.00;8.00
30713;PMS7003;17465;47.934;33.430;2023-02-28T09:33:07;16.25;16.00;9.25
30713;PMS7003;17465;47.934;33.430;2023-02-28T09:35:49;14.75;14.75;8.75
30713;PMS7003;17465;47.934;33.430;2023-02-28T09:38:21;14.00;12.50;8.50
30713;PMS7003;17465;47.934;33.430;2023-02-28T09:40:53;14.75;14.75;9.75
30713;PMS7003;17465;47.934;33.430;2023-02-28T09:43:47;17.00;16.75;9.50
30713;PMS7003;17465;47.934;33.430;2023-02-28T09:46:44;13.00;13.00;7.25
30713;PMS7003;17465;47.934;33.430;2023-02-28T09:49:18;19.75;18.25;10.00
30713;PMS7003;17465;47.934;33.430;2023-02-28T09:51:59;18.75;17.00;9.25
30713;PMS7003;17465;47.934;33.430;2023-02-28T09:54:37;21.00;18.50;10.00
30713;PMS7003;17465;47.934;33.430;2023-02-28T09:57:32;15.00;15.00;7.75
30713;PMS7003;17465;47.934;33.430;2023-02-28T10:00:10;13.25;13.25;8.25
30713;PMS7003;17465;47.934;33.430;2023-02-28T10:02:50;16.75;14.25;7.75
30713;PMS7003;17465;47.934;33.430;2023-02-28T10:05:27;14.75;14.75;7.25
30713;PMS7003;17465;47.934;33.430;2023-02-28T10:11:09;15.25;13.75;6.50
30713;PMS7003;17465;47.934;33.430;2023-02-28T10:16:19;17.00;16.50;8.00
30713;PMS7003;17465;47.934;33.430;2023-02-28T10:21:39;18.00;13.75;7.25
30713;PMS7003;17465;47.934;33.430;2023-02-28T10:24:31;14.50;13.75;7.25
30713;PMS7003;17465;47.934;33.430;2023-02-28T10:27:01;17.00;11.50;8.50
30713;PMS7003;17465;47.934;33.430;2023-02-28T10:29:33;10.75;9.75;6.00
30713;PMS7003;17465;47.934;33.430;2023-02-28T10:32:04;13.75;13.75;8.25
30713;PMS7003;17465;47.934;33.430;2023-02-28T10:34:36;13.50;12.50;9.00
30713;PMS7003;17465;47.934;33.430;2023-02-28T10:37:07;15.50;15.00;8.00
30713;PMS7003;17465;47.934;33.430;2023-02-28T10:39:43;15.75;15.25;7.50
30713;PMS7003;17465;47.934;33.430;2023-02-28T10:42:26;16.50;16.50;7.25
30713;PMS7003;17465;47.934;33.430;2023-02-28T10:45:10;12.75;12.00;8.00
30713;PMS7003;17465;47.934;33.430;2023-02-28T10:53:27;14.25;13.25;9.00
30713;PMS7003;17465;47.934;33.430;2023-02-28T10:59:02;15.75;14.00;8.75
30713;PMS7003;17465;47.934;33.430;2023-02-28T11:07:24;8.50;8.50;4.00
30713;PMS7003;17465;47.934;33.430;2023-02-28T11:09:59;15.75;13.00;6.00
30713;PMS7003;17465;47.934;33.430;2023-02-28T11:12:37;8.75;8.75;4.00
30713;PMS7003;17465;47.934;33.430;2023-02-28T11:18:06;11.50;10.50;5.00
30713;PMS7003;17465;47.934;33.430;2023-02-28T11:20:33;11.00;9.50;4.25
30713;PMS7003;17465;47.934;33.430;2023-02-28T11:23:05;9.75;8.50;5.50
30713;PMS7003;17465;47.934;33.430;2023-02-28T11:25:46;9.00;9.00;5.00
30713;PMS7003;17465;47.934;33.430;2023-02-28T11:33:56;10.00;10.00;6.00
30713;PMS7003;17465;47.934;33.430;2023-02-28T11:36:28;16.75;14.00;7.50
30713;PMS7003;17465;47.934;33.430;2023-02-28T11:39:01;18.50;14.75;6.50
30713;PMS7003;17465;47.934;33.430;2023-02-28T11:47:17;10.75;10.75;5.00
30713;PMS7003;17465;47.934;33.430;2023-02-28T11:50:00;15.75;13.75;6.50
30713;PMS7003;17465;47.934;33.430;2023-02-28T11:52:36;12.50;12.25;7.00
30713;PMS7003;17465;47.934;33.430;2023-02-28T11:58:04;17.50;14.75;8.00
30713;PMS7003;17465;47.934;33.430;2023-02-28T12:03:39;16.00;15.00;7.00
30713;PMS7003;17465;47.934;33.430;2023-02-28T12:06:20;26.00;23.25;14.50
30713;PMS7003;17465;47.934;33.430;2023-02-28T12:12:01;8.00;8.00;4.25
30713;PMS7003;17465;47.934;33.430;2023-02-28T12:14:25;11.50;9.75;5.00
30713;PMS7003;17465;47.934;33.430;2023-02-28T12:17:21;16.00;12.75;5.75
30713;PMS7003;17465;47.934;33.430;2023-02-28T12:22:49;18.25;14.50;8.25
30713;PMS7003;17465;47.934;33.430;2023-02-28T12:25:33;17.75;17.75;10.00
30713;PMS7003;17465;47.934;33.430;2023-02-28T12:28:27;16.25;14.50;7.75
30713;PMS7003;17465;47.934;33.430;2023-02-28T12:31:10;14.25;13.50;8.00
30713;PMS7003;17465;47.934;33.430;2023-02-28T12:33:40;19.50;16.00;8.25
30713;PMS7003;17465;47.934;33.430;2023-02-28T12:36:14;17.50;16.50;7.00
30713;PMS7003;17465;47.934;33.430;2023-02-28T12:38:49;13.00;12.00;5.50
30713;PMS7003;17465;47.934;33.430;2023-02-28T12:41:45;13.00;13.00;6.50
30713;PMS7003;17465;47.934;33.430;2023-02-28T12:47:04;13.50;13.50;9.25
30713;PMS7003;17465;47.934;33.430;2023-02-28T12:49:39;9.75;9.75;5.00
30713;PMS7003;17465;47.934;33.430;2023-02-28T12:52:39;10.25;8.75;5.75
30713;PMS7003;17465;47.934;33.430;2023-02-28T12:55:19;15.25;13.75;7.50
30713;PMS7003;17465;47.934;33.430;2023-02-28T13:09:34;10.00;9.00;5.25
30713;PMS7003;17465;47.934;33.430;2023-02-28T13:12:14;14.00;9.25;5.00
30713;PMS7003;17465;47.934;33.430;2023-02-28T13:14:45;12.50;9.75;5.00
30713;PMS7003;17465;47.934;33.430;2023-02-28T13:17:23;9.00;9.00;4.00
30713;PMS7003;17465;47.934;33.430;2023-02-28T13:19:58;9.25;9.25;5.00
30713;PMS7003;17465;47.934;33.430;2023-02-28T13:28:11;9.50;9.50;6.00
30713;PMS7003;17465;47.934;33.430;2023-02-28T13:36:08;11.50;11.50;5.75
30713;PMS7003;17465;47.934;33.430;2023-02-28T13:38:54;18.00;15.75;8.00
30713;PMS7003;17465;47.934;33.430;2023-02-28T13:44:16;13.50;13.50;5.00
30713;PMS7003;17465;47.934;33.430;2023-02-28T13:49:26;18.75;16.75;10.25
30713;PMS7003;17465;47.934;33.430;2023-02-28T13:57:28;8.50;8.50;4.25
30713;PMS7003;17465;47.934;33.430;2023-02-28T14:00:21;20.00;18.00;10.25
30713;PMS7003;17465;47.934;33.430;2023-02-28T14:05:51;15.75;15.50;8.25
30713;PMS7003;17465;47.934;33.430;2023-02-28T14:08:44;17.00;16.25;8.25
30713;PMS7003;17465;47.934;33.430;2023-02-28T14:11:23;15.75;15.75;8.50
30713;PMS7003;17465;47.934;33.430;2023-02-28T14:14:10;20.50;18.00;8.50
30713;PMS7003;17465;47.934;33.430;2023-02-28T14:16:58;22.50;19.00;10.50
30713;PMS7003;17465;47.934;33.430;2023-02-28T14:19:30;22.50;21.00;9.75
30713;PMS7003;17465;47.934;33.430;2023-02-28T14:38:47;43.00;34.25;16.75
30713;PMS7003;17465;47.934;33.430;2023-02-28T14:41:23;36.75;32.25;14.75
30713;PMS7003;17465;47.934;33.430;2023-02-28T14:44:03;38.00;33.75;16.50
30713;PMS7003;17465;47.934;33.430;2023-02-28T14:46:39;31.00;26.00;18.00
30713;PMS7003;17465;47.934;33.430;2023-02-28T14:49:18;35.25;29.50;15.00
30713;PMS7003;17465;47.934;33.430;2023-02-28T14:51:50;16.00;15.00;7.00
30713;PMS7003;17465;47.934;33.430;2023-02-28T14:54:32;26.25;23.25;15.00
30713;PMS7003;17465;47.934;33.430;2023-02-28T14:57:04;21.75;20.50;10.50
30713;PMS7003;17465;47.934;33.430;2023-02-28T14:59:35;20.25;18.75;9.50
30713;PMS7003;17465;47.934;33.430;2023-02-28T15:02:23;25.00;18.00;10.75
30713;PMS7003;17465;47.934;33.430;2023-02-28T15:04:59;22.25;20.25;11.75
30713;PMS7003;17465;47.934;33.430;2023-02-28T15:07:32;21.75;21.75;11.00
30713;PMS7003;17465;47.934;33.430;2023-02-28T15:12:57;20.50;20.50;11.50
30713;PMS7003;17465;47.934;33.430;2023-02-28T15:16:00;18.50;18.50;9.00
30713;PMS7003;17465;47.934;33.430;2023-02-28T15:18:47;25.25;25.25;15.00
30713;PMS7003;17465;47.934;33.430;2023-02-28T15:21:25;26.25;23.75;12.50
30713;PMS7003;17465;47.934;33.430;2023-02-28T15:26:54;28.00;27.50;13.75
30713;PMS7003;17465;47.934;33.430;2023-02-28T15:29:30;26.50;26.50;15.50
30713;PMS7003;17465;47.934;33.430;2023-02-28T15:32:04;22.00;22.00;14.25
30713;PMS7003;17465;47.934;33.430;2023-02-28T15:34:39;29.25;27.25;13.75
30713;PMS7003;17465;47.934;33.430;2023-02-28T15:40:10;26.00;25.25;11.25
30713;PMS7003;17465;47.934;33.430;2023-02-28T15:42:39;32.50;32.00;17.50
30713;PMS7003;17465;47.934;33.430;2023-02-28T15:51:07;38.25;35.50;19.00
30713;PMS7003;17465;47.934;33.430;2023-02-28T15:56:31;32.50;30.50;13.75
30713;PMS7003;17465;47.934;33.430;2023-02-28T15:59:04;32.50;32.50;16.50
30713;PMS7003;17465;47.934;33.430;2023-02-28T16:01:37;37.00;34.50;17.00
30713;PMS7003;17465;47.934;33.430;2023-02-28T16:04:19;36.25;27.50;16.00
30713;PMS7003;17465;47.934;33.430;2023-02-28T16:09:34;45.25;38.50;20.00
30713;PMS7003;17465;47.934;33.430;2023-02-28T16:12:05;30.75;30.75;18.50
30713;PMS7003;17465;47.934;33.430;2023-02-28T16:14:37;42.75;41.25;22.50
30713;PMS7003;17465;47.934;33.430;2023-02-28T16:17:20;35.75;32.75;19.50
30713;PMS7003;17465;47.934;33.430;2023-02-28T16:20:20;36.00;33.00;15.50
30713;PMS7003;17465;47.934;33.430;2023-02-28T16:23:13;36.75;35.00;18.50
30713;PMS7003;17465;47.934;33.430;2023-02-28T16:25:44;37.50;33.25;17.50
30713;PMS7003;17465;47.934;33.430;2023-02-28T16:28:31;43.50;35.75;18.75
30713;PMS7003;17465;47.934;33.430;2023-02-28T16:31:01;33.75;33.00;18.50
30713;PMS7003;17465;47.934;33.430;2023-02-28T16:33:34;41.50;35.25;17.75
30713;PMS7003;17465;47.934;33.430;2023-02-28T16:36:06;37.25;26.75;12.00
30713;PMS7003;17465;47.934;33.430;2023-02-28T16:38:38;40.50;35.75;19.50
30713;PMS7003;17465;47.934;33.430;2023-02-28T16:41:14;33.25;32.75;18.25
30713;PMS7003;17465;47.934;33.430;2023-02-28T16:44:02;45.50;37.75;22.25
30713;PMS7003;17465;47.934;33.430;2023-02-28T16:46:36;39.00;32.00;16.25
30713;PMS7003;17465;47.934;33.430;2023-02-28T16:49:10;48.00;39.50;21.00
30713;PMS7003;17465;47.934;33.430;2023-02-28T16:51:41;42.25;42.00;20.75
30713;PMS7003;17465;47.934;33.430;2023-02-28T16:54:12;45.25;42.00;20.50
30713;PMS7003;17465;47.934;33.430;2023-02-28T16:56:44;48.00;41.00;21.50
30713;PMS7003;17465;47.934;33.430;2023-02-28T16:59:26;38.25;34.00;17.75
30713;PMS7003;17465;47.934;33.430;2023-02-28T17:01:59;38.50;38.25;18.25
30713;PMS7003;17465;47.934;33.430;2023-02-28T17:04:30;40.75;35.50;20.25